createdAt,value
2022-09-28T00:01:27.444Z,2.30
2022-09-28T00:04:29.680Z,2.20
2022-09-28T00:07:31.894Z,2.22
2022-09-28T00:10:34.125Z,2.05
2022-09-28T00:13:36.421Z,2.00
2022-09-28T00:16:43.503Z,2.67
2022-09-28T00:19:46.071Z,2.47
2022-09-28T00:22:48.255Z,2.33
2022-09-28T00:25:50.860Z,2.40
2022-09-28T00:28:58.555Z,2.17
2022-09-28T00:32:12.060Z,1.70
2022-09-28T00:35:14.334Z,2.53
2022-09-28T00:38:17.735Z,2.15
2022-09-28T00:41:20.826Z,2.70
2022-09-28T00:44:26.801Z,1.57
2022-09-28T00:47:29.125Z,2.20
2022-09-28T00:50:35.794Z,2.50
2022-09-28T00:53:40.680Z,1.90
2022-09-28T00:56:47.257Z,2.22
2022-09-28T00:59:50.361Z,2.17
2022-09-28T01:02:52.820Z,2.70
2022-09-28T01:05:57.637Z,1.88
2022-09-28T01:09:03.549Z,1.98
2022-09-28T01:12:06.061Z,2.60
2022-09-28T01:15:08.554Z,2.47
2022-09-28T01:18:29.171Z,2.23
2022-09-28T01:21:56.590Z,3.05
2022-09-28T01:25:10.745Z,2.15
2022-09-28T01:28:15.516Z,1.33
2022-09-28T01:31:18.110Z,1.43
2022-09-28T01:34:37.778Z,1.17
2022-09-28T01:37:53.114Z,2.78
2022-09-28T01:40:56.797Z,0.98
2022-09-28T01:44:02.920Z,1.70
2022-09-28T01:47:08.007Z,1.10
2022-09-28T01:50:16.943Z,1.63
2022-09-28T01:53:25.878Z,2.42
2022-09-28T01:56:38.766Z,1.60
2022-09-28T01:59:46.080Z,2.15
2022-09-28T02:02:54.679Z,1.83
2022-09-28T02:06:08.931Z,2.63
2022-09-28T02:09:14.709Z,1.75
2022-09-28T02:12:43.667Z,2.05
2022-09-28T02:15:51.579Z,1.50
2022-09-28T02:18:53.819Z,3.27
2022-09-28T02:22:07.978Z,1.63
2022-09-28T02:25:25.632Z,1.60
2022-09-28T02:28:30.265Z,1.73
2022-09-28T02:31:32.534Z,2.60
2022-09-28T02:34:35.413Z,2.00
2022-09-28T02:37:38.178Z,2.33
2022-09-28T02:40:41.073Z,2.25
2022-09-28T02:43:58.293Z,2.35
2022-09-28T02:47:22.574Z,3.42
2022-09-28T02:50:50.257Z,1.80
2022-09-28T02:54:25.908Z,1.70
2022-09-28T02:57:42.136Z,1.70
2022-09-28T03:01:18.570Z,2.38
2022-09-28T03:04:27.003Z,2.22
2022-09-28T03:07:33.128Z,2.30
2022-09-28T03:10:42.338Z,3.93
2022-09-28T03:13:44.599Z,1.63
2022-09-28T03:16:46.964Z,2.15
2022-09-28T03:19:49.269Z,3.92
2022-09-28T03:23:06.349Z,2.80
2022-09-28T03:26:14.625Z,2.27
2022-09-28T03:29:17.469Z,2.28
2022-09-28T03:32:22.079Z,1.80
2022-09-28T03:35:24.207Z,2.22
2022-09-28T03:38:26.428Z,2.43
2022-09-28T03:41:29.764Z,1.60
2022-09-28T03:44:31.958Z,2.60
2022-09-28T03:47:34.151Z,2.72
2022-09-28T03:50:36.299Z,2.83
2022-09-28T03:53:38.917Z,1.97
2022-09-28T03:56:41.801Z,2.27
2022-09-28T03:59:44.383Z,3.13
2022-09-28T04:02:47.072Z,2.30
2022-09-28T04:05:50.425Z,3.35
2022-09-28T04:08:52.604Z,2.07
2022-09-28T04:12:03.762Z,1.70
2022-09-28T04:15:08.052Z,2.45
2022-09-28T04:18:11.811Z,2.45
2022-09-28T04:21:34.204Z,4.18
2022-09-28T04:24:44.086Z,3.20
2022-09-28T04:28:04.770Z,2.67
2022-09-28T04:31:15.965Z,3.08
2022-09-28T04:34:22.450Z,2.83
2022-09-28T04:37:25.585Z,4.20
2022-09-28T04:40:28.430Z,2.57
2022-09-28T04:43:31.012Z,2.77
2022-09-28T04:46:33.673Z,3.03
2022-09-28T04:49:54.539Z,2.22
2022-09-28T04:53:04.027Z,3.10
2022-09-28T04:56:08.629Z,1.70
2022-09-28T04:59:12.919Z,1.50
2022-09-28T05:02:18.051Z,1.83
2022-09-28T05:05:52.649Z,2.28
2022-09-28T05:09:20.674Z,2.35
2022-09-28T05:12:23.775Z,3.40
2022-09-28T05:15:25.960Z,3.20
2022-09-28T05:18:28.719Z,3.28
2022-09-28T05:21:38.150Z,3.35
2022-09-28T05:24:40.867Z,2.70
2022-09-28T05:27:44.339Z,3.50
2022-09-28T05:31:04.937Z,3.53
2022-09-28T05:34:31.381Z,2.60
2022-09-28T05:37:34.478Z,3.90
2022-09-28T05:40:36.743Z,4.82
2022-09-28T05:43:44.128Z,3.67
2022-09-28T05:46:46.365Z,5.23
2022-09-28T05:49:48.585Z,5.57
2022-09-28T05:53:08.625Z,4.90
2022-09-28T05:56:11.947Z,4.20
2022-09-28T05:59:18.654Z,5.70
2022-09-28T06:02:20.969Z,5.53
2022-09-28T06:05:24.706Z,3.40
2022-09-28T06:08:26.882Z,2.42
2022-09-28T06:11:42.863Z,3.38
2022-09-28T06:14:54.044Z,4.10
2022-09-28T06:18:01.428Z,3.67
2022-09-28T06:21:16.902Z,3.92
2022-09-28T06:24:21.250Z,3.55
2022-09-28T06:27:23.398Z,3.20
2022-09-28T06:30:27.298Z,3.33
2022-09-28T06:33:30.301Z,2.33
2022-09-28T06:36:33.251Z,2.22
2022-09-28T06:39:35.424Z,1.92
2022-09-28T06:42:37.587Z,3.72
2022-09-28T06:45:59.948Z,2.13
2022-09-28T06:49:20.678Z,3.67
2022-09-28T06:52:42.998Z,3.17
2022-09-28T06:56:02.641Z,2.85
2022-09-28T06:59:06.718Z,1.95
2022-09-28T07:02:14.380Z,2.23
2022-09-28T07:05:36.986Z,2.30
2022-09-28T07:09:11.347Z,1.90
2022-09-28T07:12:36.494Z,2.08
2022-09-28T07:15:47.654Z,3.40
2022-09-28T07:18:50.506Z,3.27
2022-09-28T07:22:02.189Z,2.50
2022-09-28T07:25:07.875Z,2.33
2022-09-28T07:28:34.151Z,2.20
2022-09-28T07:31:54.157Z,2.20
2022-09-28T07:35:09.320Z,2.80
2022-09-28T07:38:19.094Z,3.17
2022-09-28T07:41:32.291Z,3.75
2022-09-28T07:44:36.963Z,3.45
2022-09-28T07:47:39.844Z,2.40
2022-09-28T07:51:00.345Z,2.63
2022-09-28T07:54:13.719Z,2.27
2022-09-28T07:57:35.723Z,2.22
2022-09-28T08:00:53.105Z,1.83
2022-09-28T08:03:56.653Z,2.13
2022-09-28T08:07:00.788Z,2.03
2022-09-28T08:10:05.096Z,2.33
2022-09-28T08:13:27.258Z,2.30
2022-09-28T08:16:53.187Z,2.67
2022-09-28T08:20:36.296Z,1.90
2022-09-28T08:23:38.806Z,2.33
2022-09-28T08:26:43.198Z,1.90
2022-09-28T08:29:46.814Z,2.88
2022-09-28T08:33:08.865Z,2.78
2022-09-28T08:36:16.890Z,2.60
2022-09-28T08:39:37.444Z,2.60
2022-09-28T08:42:56.808Z,2.13
2022-09-28T08:46:22.683Z,2.80
2022-09-28T08:49:47.318Z,2.70
2022-09-28T08:53:50.959Z,2.92
2022-09-28T08:57:05.475Z,2.10
2022-09-28T09:00:17.054Z,3.60
2022-09-28T09:03:30.027Z,3.65
2022-09-28T09:07:10.798Z,3.22
2022-09-28T09:10:33.914Z,3.45
2022-09-28T09:14:04.614Z,2.80
2022-09-28T09:17:42.208Z,3.40
2022-09-28T09:20:59.104Z,3.05
2022-09-28T09:24:28.373Z,3.58
2022-09-28T09:27:46.706Z,2.55
2022-09-28T09:31:08.950Z,2.87
2022-09-28T09:34:45.658Z,3.80
2022-09-28T09:38:23.770Z,2.83
2022-09-28T09:42:10.384Z,4.25
2022-09-28T09:46:09.109Z,4.50
2022-09-28T09:49:27.226Z,4.07
2022-09-28T09:52:44.456Z,2.77
2022-09-28T09:55:50.450Z,3.58
2022-09-28T09:59:19.197Z,4.57
2022-09-28T10:02:39.329Z,3.85
2022-09-28T10:06:01.776Z,2.73
2022-09-28T10:09:06.915Z,3.43
2022-09-28T10:12:15.256Z,2.97
2022-09-28T10:15:39.567Z,3.17
2022-09-28T10:18:49.861Z,3.30
2022-09-28T10:22:18.285Z,3.00
2022-09-28T10:25:20.500Z,3.07
2022-09-28T10:28:33.586Z,4.22
2022-09-28T10:31:44.158Z,2.97
2022-09-28T10:35:11.937Z,3.63
2022-09-28T10:38:17.558Z,2.80
2022-09-28T10:41:27.858Z,3.53
2022-09-28T10:44:34.814Z,3.17
2022-09-28T10:47:46.123Z,2.92
2022-09-28T10:51:01.045Z,2.85
2022-09-28T10:54:03.360Z,2.97
2022-09-28T10:57:28.078Z,3.37
2022-09-28T11:00:42.838Z,3.03
2022-09-28T11:04:00.427Z,3.10
2022-09-28T11:07:03.517Z,2.78
2022-09-28T11:10:07.331Z,3.47
2022-09-28T11:13:11.139Z,3.13
2022-09-28T11:16:39.971Z,3.08
2022-09-28T11:19:44.042Z,2.50
2022-09-28T11:22:51.451Z,3.38
2022-09-28T11:26:07.033Z,2.83
2022-09-28T11:29:35.314Z,3.67
2022-09-28T11:33:15.456Z,3.60
2022-09-28T11:37:01.441Z,4.22
2022-09-28T11:40:25.986Z,3.47
2022-09-28T11:43:43.003Z,4.47
2022-09-28T11:46:48.166Z,5.30
2022-09-28T11:49:59.031Z,3.75
2022-09-28T11:53:24.987Z,7.28
2022-09-28T11:56:40.343Z,4.88
2022-09-28T11:59:50.400Z,5.20
2022-09-28T12:03:06.114Z,5.27
2022-09-28T12:06:15.656Z,3.97
2022-09-28T12:09:28.639Z,4.03
2022-09-28T12:12:54.781Z,4.43
2022-09-28T12:19:38.444Z,5.13
2022-09-28T12:22:58.695Z,2.63
2022-09-28T12:26:03.929Z,3.28
2022-09-28T12:29:12.091Z,3.50
2022-09-28T12:32:32.190Z,4.43
2022-09-28T12:35:52.467Z,2.93
2022-09-28T12:39:19.052Z,3.33
2022-09-28T12:42:47.597Z,2.25
2022-09-28T12:46:13.201Z,2.58
2022-09-28T12:50:27.177Z,3.20
2022-09-28T12:53:20.951Z,2.80
2022-09-28T12:56:32.460Z,4.45
2022-09-28T12:59:37.495Z,2.25
2022-09-28T13:02:58.044Z,3.15
2022-09-28T13:06:06.047Z,2.17
2022-09-28T13:09:14.211Z,2.53
2022-09-28T13:12:23.329Z,3.10
2022-09-28T13:15:49.738Z,3.75
2022-09-28T13:18:55.079Z,4.50
2022-09-28T13:22:20.131Z,2.63
2022-09-28T13:25:25.341Z,1.80
2022-09-28T13:28:28.406Z,1.70
2022-09-28T13:31:35.949Z,1.65
2022-09-28T13:34:39.793Z,2.20
2022-09-28T13:37:42.640Z,2.17
2022-09-28T13:41:03.803Z,3.77
2022-09-28T13:44:16.701Z,1.88
2022-09-28T13:47:28.587Z,3.90
2022-09-28T13:50:34.433Z,2.60
2022-09-28T13:53:40.938Z,2.73
2022-09-28T13:57:03.195Z,2.33
2022-09-28T14:00:25.491Z,3.78
2022-09-28T14:03:54.673Z,2.15
2022-09-28T14:07:16.835Z,3.20
2022-09-28T14:10:21.742Z,2.63
2022-09-28T14:13:42.385Z,2.33
2022-09-28T14:16:44.971Z,1.85
2022-09-28T14:19:53.948Z,1.80
2022-09-28T14:23:11.525Z,4.20
2022-09-28T14:26:41.938Z,1.57
2022-09-28T14:29:44.408Z,1.80
2022-09-28T14:32:54.845Z,2.45
2022-09-28T14:36:04.714Z,1.67
2022-09-28T14:39:37.756Z,1.08
2022-09-28T14:42:40.940Z,1.87
2022-09-28T14:45:45.864Z,2.60
2022-09-28T14:48:48.116Z,2.95
2022-09-28T14:51:53.065Z,1.95
2022-09-28T14:54:56.583Z,1.35
2022-09-28T14:57:59.836Z,1.60
2022-09-28T15:01:10.094Z,1.90
2022-09-28T15:04:13.430Z,2.88
2022-09-28T15:07:21.822Z,2.03
2022-09-28T15:10:34.225Z,1.92
2022-09-28T15:13:38.443Z,1.57
2022-09-28T15:16:41.438Z,1.40
2022-09-28T15:20:11.767Z,2.25
2022-09-28T15:23:37.185Z,1.65
2022-09-28T15:26:39.966Z,2.33
2022-09-28T15:30:16.547Z,2.37
2022-09-28T15:33:46.469Z,2.67
2022-09-28T15:36:50.155Z,4.20
2022-09-28T15:39:54.514Z,3.30
2022-09-28T15:42:59.196Z,4.15
2022-09-28T15:46:09.761Z,3.77
2022-09-28T15:49:56.864Z,8.40
2022-09-28T15:53:01.159Z,4.07
2022-09-28T15:56:10.552Z,4.53
2022-09-28T15:59:15.590Z,2.65
2022-09-28T16:02:19.803Z,4.00
2022-09-28T16:05:39.314Z,3.57
2022-09-28T16:08:44.089Z,3.95
2022-09-28T16:11:47.075Z,3.83
2022-09-28T16:14:52.213Z,4.00
2022-09-28T16:18:03.185Z,5.00
2022-09-28T16:21:27.877Z,3.90
2022-09-28T16:24:33.949Z,6.03
2022-09-28T16:27:38.835Z,6.15
2022-09-28T16:31:05.613Z,5.68
2022-09-28T16:34:15.895Z,5.27
2022-09-28T16:37:31.446Z,4.50
2022-09-28T16:40:34.359Z,3.95
2022-09-28T16:43:37.510Z,4.88
2022-09-28T16:46:40.432Z,5.85
2022-09-28T16:49:43.384Z,6.20
2022-09-28T16:53:04.811Z,4.27
2022-09-28T16:56:08.211Z,6.35
2022-09-28T16:59:13.801Z,4.75
2022-09-28T17:02:45.163Z,5.28
2022-09-28T17:05:43.194Z,5.20
2022-09-28T17:08:46.392Z,4.47
2022-09-28T17:11:57.035Z,3.45
2022-09-28T17:15:00.361Z,4.78
2022-09-28T17:18:02.769Z,5.55
2022-09-28T17:21:09.014Z,6.40
2022-09-28T17:24:11.279Z,6.07
2022-09-28T17:27:17.105Z,4.85
2022-09-28T17:30:23.536Z,6.55
2022-09-28T17:33:27.409Z,5.00
2022-09-28T17:36:30.598Z,5.03
2022-09-28T17:39:33.361Z,5.00
2022-09-28T17:42:35.528Z,6.35
2022-09-28T17:45:41.371Z,3.97
2022-09-28T17:48:46.664Z,4.80
2022-09-28T17:51:50.311Z,4.93
2022-09-28T17:54:52.568Z,5.83
2022-09-28T17:57:55.594Z,4.50
2022-09-28T18:00:57.771Z,7.35
2022-09-28T18:04:01.542Z,6.45
2022-09-28T18:07:04.006Z,7.57
2022-09-28T18:10:07.054Z,5.63
2022-09-28T18:13:10.959Z,6.25
2022-09-28T18:16:13.810Z,6.63
2022-09-28T18:19:16.033Z,8.10
2022-09-28T18:22:18.247Z,7.90
2022-09-28T18:25:20.527Z,8.17
2022-09-28T18:28:23.141Z,8.95
2022-09-28T18:31:25.516Z,9.45
2022-09-28T18:34:27.760Z,9.07
2022-09-28T18:37:30.116Z,9.73
2022-09-28T18:40:34.052Z,11.87
2022-09-28T18:43:37.126Z,8.70
2022-09-28T18:46:40.612Z,9.38
2022-09-28T18:49:46.541Z,11.20
2022-09-28T18:52:49.116Z,9.43
2022-09-28T18:55:51.371Z,9.57
2022-09-28T18:58:56.044Z,8.60
2022-09-28T19:02:01.318Z,9.70
2022-09-28T19:05:05.759Z,8.95
2022-09-28T19:08:07.958Z,6.87
2022-09-28T19:11:12.628Z,7.50
2022-09-28T19:14:15.848Z,7.07
2022-09-28T19:17:18.451Z,7.25
2022-09-28T19:20:21.089Z,9.20
2022-09-28T19:23:25.976Z,9.53
2022-09-28T19:26:29.137Z,9.80
2022-09-28T19:29:32.931Z,9.82
2022-09-28T19:32:35.184Z,9.00
2022-09-28T19:35:37.456Z,9.32
2022-09-28T19:38:40.273Z,10.40
2022-09-28T19:41:51.589Z,9.90
2022-09-28T19:44:53.790Z,11.63
2022-09-28T19:47:59.569Z,9.88
2022-09-28T19:51:04.362Z,10.30
2022-09-28T19:54:06.965Z,10.57
2022-09-28T19:57:10.871Z,12.43
2022-09-28T20:00:13.960Z,12.30
2022-09-28T20:03:17.269Z,10.45
2022-09-28T20:06:20.358Z,10.77
2022-09-28T20:09:23.452Z,10.57
2022-09-28T20:12:26.653Z,11.40
2022-09-28T20:15:30.227Z,9.02
2022-09-28T20:18:36.935Z,10.30
2022-09-28T20:21:39.365Z,9.57
2022-09-28T20:24:41.475Z,10.30
2022-09-28T20:27:43.859Z,9.97
2022-09-28T20:30:46.094Z,9.77
2022-09-28T20:33:48.895Z,10.60
2022-09-28T20:36:51.084Z,15.35
2022-09-28T20:39:53.390Z,11.53
2022-09-28T20:42:55.776Z,11.53
2022-09-28T20:45:59.242Z,9.73
2022-09-28T20:49:01.667Z,9.75
2022-09-28T20:52:03.885Z,11.18
2022-09-28T20:55:06.388Z,10.23
2022-09-28T20:58:08.582Z,10.50
2022-09-28T21:01:23.296Z,9.98
2022-09-28T21:04:25.616Z,11.77
2022-09-28T21:07:27.810Z,11.35
2022-09-28T21:10:30.923Z,7.27
2022-09-28T21:13:33.184Z,8.37
2022-09-28T21:16:35.552Z,8.15
2022-09-28T21:19:37.703Z,9.80
2022-09-28T21:22:39.888Z,9.45
2022-09-28T21:25:42.551Z,7.43
2022-09-28T21:28:46.368Z,9.20
2022-09-28T21:31:49.359Z,10.05
2022-09-28T21:34:51.884Z,8.80
2022-09-28T21:37:54.057Z,9.77
2022-09-28T21:40:59.707Z,9.00
2022-09-28T21:44:02.054Z,10.40
2022-09-28T21:47:04.240Z,9.90
2022-09-28T21:50:06.984Z,10.55
2022-09-28T21:53:10.134Z,10.45
2022-09-28T21:56:13.085Z,9.30
2022-09-28T21:59:15.369Z,9.57
2022-09-28T22:02:17.544Z,9.60
2022-09-28T22:05:19.878Z,8.20
2022-09-28T22:08:23.166Z,9.48
2022-09-28T22:11:27.444Z,9.90
2022-09-28T22:14:29.932Z,9.67
2022-09-28T22:17:32.052Z,10.70
2022-09-28T22:20:34.193Z,9.13
2022-09-28T22:23:37.301Z,11.60
2022-09-28T22:26:40.302Z,10.37
2022-09-28T22:29:42.915Z,9.87
2022-09-28T22:32:45.039Z,11.10
2022-09-28T22:35:49.183Z,9.10
2022-09-28T22:38:51.472Z,10.23
2022-09-28T22:41:53.638Z,10.03
2022-09-28T22:44:56.015Z,9.10
2022-09-28T22:47:58.195Z,10.73
2022-09-28T22:51:01.238Z,10.23
2022-09-28T22:54:03.469Z,12.23
2022-09-28T22:57:05.649Z,11.20
2022-09-28T23:00:08.525Z,11.77
2022-09-28T23:03:10.701Z,9.82
2022-09-28T23:06:16.070Z,11.90
2022-09-28T23:09:18.343Z,11.98
2022-09-28T23:12:20.612Z,11.07
2022-09-28T23:15:22.968Z,10.23
2022-09-28T23:18:27.769Z,10.50
2022-09-28T23:21:30.016Z,11.48
2022-09-28T23:24:32.859Z,11.75
2022-09-28T23:27:35.844Z,11.90
2022-09-28T23:30:38.728Z,14.73
2022-09-28T23:33:41.827Z,12.35
2022-09-28T23:36:44.252Z,12.82
2022-09-28T23:39:46.560Z,12.35
2022-09-28T23:42:48.668Z,12.97
2022-09-28T23:45:50.761Z,12.83
2022-09-28T23:48:53.140Z,24.10
2022-09-28T23:51:56.215Z,13.05
2022-09-28T23:54:58.326Z,15.85
2022-09-28T23:58:00.474Z,14.67
